This is the latest recevied weather packets stored in our database for station/object BV5AB-33. If no packets are shown the sender has not sent any weather packets the latest 10 day(s).
| Time | Temp. | Humidity | Pressure | Rain* | Wind** | Luminosity | Snow |
|---|---|---|---|---|---|---|---|
| 1778029494 | 26.11° C | 71% | 984.1 hPa | 0 mm | - | - | - |
| 1778021393 | 22.22° C | 82% | 983.6 hPa | 0.25 mm | - | - | - |
| 1778020793 | 22.22° C | 81% | 983.6 hPa | 0.25 mm | - | - | - |
| 1778020193 | 21.67° C | 81% | 983.7 hPa | 0.51 mm | - | - | - |
| 1778018094 | 21.67° C | 81% | 983.6 hPa | 1.52 mm | - | - | - |
| 1778015993 | 21.11° C | 86% | 983.3 hPa | 12.19 mm | - | - | - |
| 1778012694 | 21.11° C | 91% | 983 hPa | 4.57 mm | - | - | - |
| 1778011494 | 21.11° C | 91% | 982.7 hPa | 3.81 mm | - | - | - |
| 1778005494 | 21.67° C | 88% | 982.8 hPa | 1.78 mm | - | - | - |
| 1778001595 | 21.67° C | 86% | 982.5 hPa | 1.52 mm | - | - | - |
| 1778001294 | 21.67° C | 87% | 982.7 hPa | 1.78 mm | - | - | - |
| 1777997394 | 22.22° C | 84% | 983.1 hPa | 1.02 mm | - | - | - |
| 1777996494 | 22.22° C | 84% | 983.3 hPa | 0.25 mm | - | - | - |
| 1777996194 | 22.22° C | 84% | 983 hPa | 0.51 mm | - | - | - |
| 1777994994 | 22.22° C | 85% | 983.3 hPa | 1.78 mm | - | - | - |
| 1777994095 | 22.22° C | 88% | 983.6 hPa | 2.79 mm | - | - | - |
| 1777992895 | 21.67° C | 86% | 984 hPa | 3.81 mm | - | - | - |
| 1777989894 | 22.22° C | 86% | 984.1 hPa | 1.02 mm | - | - | - |
| 1777988994 | 22.22° C | 85% | 983.7 hPa | 1.02 mm | - | - | - |
| 1777985095 | 22.22° C | 85% | 983.8 hPa | 1.78 mm | - | - | - |
| 1777978795 | 22.78° C | 82% | 983.6 hPa | 1.27 mm | - | - | - |
| 1777973694 | 23.33° C | 79% | 983 hPa | 93.22 mm | - | - | - |
| 1777970396 | 23.89° C | 79% | 982.5 hPa | 6.6 mm | - | - | - |
| 1777965895 | 24.44° C | 76% | 983 hPa | 1.02 mm | - | - | - |
| 1777964095 | 24.44° C | 75% | 982.9 hPa | 0 mm | - | - | - |
* Rain latest hour (hover to see other rain measurements)
** Current wind speed in m/s (hover to see current wind gust speed)